Charles Darwin — GDLS — position and weather

sailwx.info

Track history (hours):
 
Tides and Currents Weather Stations Pressure Air Temp Water Temp Dewpoint Dewpoint Depression Visibility Wind Speed Wind Dir Waves Ship Positions

Oceanographic research ship Charles Darwin (UK)

Detailed information on ship capabilities available from University of Delaware's Ocean Information Center.

Last reported at 2019-Aug-20 09:30 UTC. Time now 2019-Aug-20 09:51 UTC.
Position N 39°06' W 074°17'.

Length 70 m; draft 5.7 m.

Type: Cargo ship. MMSI: 235011460.

Date/timePositionNaut miles runAvg speedWind from/ knotsBaromVisibWave heightAir tempDewpointWater temp
2019-Aug-20 09:30N 39°06' W 074°17'1 2.9
2019-Aug-20 09:00N 39°08' W 074°18'2 3.8
2019-Aug-20 08:30N 39°07' W 074°16'2 3.8
2019-Aug-20 08:00N 39°05' W 074°14'2 3.7
2019-Aug-20 07:30N 39°04' W 074°13'1 2.4
2019-Aug-20 07:00N 39°05' W 074°14'2 3.9
2019-Aug-20 06:30N 39°06' W 074°15'2 3.9
2019-Aug-20 05:55N 39°08' W 074°17'2 3.7
2019-Aug-20 05:22N 39°09' W 074°19'1 3.3
2019-Aug-20 05:00N 39°08' W 074°18'7 3.5
2019-Aug-20 03:05N 39°03' W 074°13'3 1.3
2019-Aug-20 00:29N 39°05' W 074°16'2 4.3
2019-Aug-20 00:00N 39°04' W 074°14'2 4.3
2019-Aug-19 23:31N 39°02' W 074°13'9 3.3
2019-Aug-19 20:37N 39°09' W 074°20'1 4.2
2019-Aug-19 20:30N 39°09' W 074°20'2 4.1
2019-Aug-19 19:55N 39°07' W 074°18'3 4.1
2019-Aug-19 19:12N 39°05' W 074°15'1 4.0
2019-Aug-19 18:58N 39°04' W 074°15'2 4.0
2019-Aug-19 18:30N 39°03' W 074°13'1 1.7
2019-Aug-19 17:47N 39°04' W 074°14'1 4.4
2019-Aug-19 17:28N 39°05' W 074°15'7 4.1
2019-Aug-19 15:49N 39°10' W 074°21'1 2.5
2019-Aug-19 15:25N 39°09' W 074°20'2 4.0
2019-Aug-19 15:00N 39°08' W 074°19'1 2.6
2019-Aug-19 14:28N 39°07' W 074°17'2 4.2
2019-Aug-19 13:57N 39°08' W 074°15'2 3.3
2019-Aug-19 13:28N 39°10' W 074°15'1 3.1
2019-Aug-19 12:59N 39°11' W 074°16'2 3.0
2019-Aug-19 12:24N 39°13' W 074°17'3 8.2
2019-Aug-19 12:00N 39°16' W 074°16'4 8.6
2019-Aug-19 11:30N 39°20' W 074°13'4 8.6
2019-Aug-19 11:01N 39°24' W 074°10'4 8.5
2019-Aug-19 10:30N 39°27' W 074°07'2 4.2
2019-Aug-19 10:01N 39°29' W 074°06'1 2.2
2019-Aug-19 09:31N 39°29' W 074°05'0 0.6
2019-Aug-19 09:00N 39°29' W 074°04'0 0.3
2019-Aug-19 08:30N 39°29' W 074°04'0 0.2
2019-Aug-19 08:00N 39°29' W 074°04'0 0.2
2019-Aug-19 07:30N 39°29' W 074°04'0 0.1
2019-Aug-19 07:00N 39°29' W 074°04'0 0.0
2019-Aug-19 06:30N 39°29' W 074°04'2 1.9
2019-Aug-19 05:38N 39°30' W 074°03'0 3.4
2019-Aug-19 05:30N 39°30' W 074°04'2 3.5
2019-Aug-19 05:01N 39°28' W 074°04'0 0.1
2019-Aug-19 04:30N 39°28' W 074°05'0 0.0
2019-Aug-19 04:00N 39°28' W 074°05'0 0.2
2019-Aug-19 03:31N 39°28' W 074°05'0 0.2
2019-Aug-19 03:00N 39°28' W 074°05'0 0.2
2019-Aug-19 02:31N 39°28' W 074°05'0 0.3
2019-Aug-19 02:00N 39°28' W 074°05'0 0.3
2019-Aug-19 01:31N 39°28' W 074°05'0 0.3
2019-Aug-19 01:00N 39°28' W 074°05'1 2.4
2019-Aug-19 00:30N 39°28' W 074°07'2 3.0
2019-Aug-19 00:00N 39°29' W 074°08'2 4.0
2019-Aug-18 23:30N 39°30' W 074°06'2 4.0
2019-Aug-18 23:00N 39°32' W 074°05'2 4.2
2019-Aug-18 22:30N 39°34' W 074°05'2 4.1
2019-Aug-18 22:00N 39°36' W 074°04'2 4.2
2019-Aug-18 21:30N 39°38' W 074°03'2 3.8
2019-Aug-18 20:59N 39°36' W 074°04'2 4.1
2019-Aug-18 20:30N 39°34' W 074°05'2 4.4
2019-Aug-18 20:00N 39°32' W 074°05'2 4.0
2019-Aug-18 19:30N 39°30' W 074°06'2 4.0
2019-Aug-18 19:00N 39°29' W 074°08'5 3.9
2019-Aug-18 17:47N 39°33' W 074°05'1 4.3
2019-Aug-18 17:30N 39°34' W 074°05'2 4.2
2019-Aug-18 17:00N 39°36' W 074°04'2 4.0
2019-Aug-18 16:30N 39°38' W 074°03'2 4.0
2019-Aug-18 16:00N 39°36' W 074°04'2 3.9
2019-Aug-18 15:30N 39°34' W 074°05'2 3.9
2019-Aug-18 15:00N 39°32' W 074°05'2 3.9
2019-Aug-18 14:30N 39°30' W 074°06'2 3.8
2019-Aug-18 14:00N 39°29' W 074°08'0 0.9
2019-Aug-18 13:30N 39°29' W 074°08'2 3.9
2019-Aug-18 12:56N 39°30' W 074°06'2 4.1
2019-Aug-18 12:30N 39°32' W 074°05'2 4.1
2019-Aug-18 11:58N 39°34' W 074°05'2 4.1
2019-Aug-18 11:30N 39°36' W 074°04'2 4.2
2019-Aug-18 11:00N 39°38' W 074°03'1 2.0
2019-Aug-18 10:29N 39°37' W 074°03'2 3.4
2019-Aug-18 10:00N 39°38' W 074°02'2 3.6
2019-Aug-18 09:30N 39°39' W 074°00'1 2.7
2019-Aug-18 09:00N 39°40' W 073°59'0 0.1
2019-Aug-18 08:30N 39°40' W 073°59'0 0.1
2019-Aug-18 08:00N 39°40' W 073°58'0 0.1
2019-Aug-18 07:00N 39°40' W 073°58'0 0.2
2019-Aug-18 06:30N 39°40' W 073°58'0 0.1
2019-Aug-18 06:00N 39°40' W 073°59'0 0.2
2019-Aug-18 05:30N 39°40' W 073°59'0 0.1
2019-Aug-18 05:00N 39°40' W 073°59'0 0.1
2019-Aug-18 04:30N 39°40' W 073°59'0 0.1
2019-Aug-18 04:00N 39°39' W 073°59'0 0.1
2019-Aug-18 03:30N 39°39' W 073°59'0 0.1
2019-Aug-18 03:00N 39°39' W 073°59'0 0.2
2019-Aug-18 02:30N 39°39' W 073°59'1 1.2
2019-Aug-18 02:00N 39°39' W 073°60'0 0.1
2019-Aug-18 01:30N 39°39' W 073°60'0 0.1
2019-Aug-18 01:00N 39°39' W 073°60'2 3.4
2019-Aug-18 00:27N 39°41' W 074°01'2 4.1
2019-Aug-18 00:00N 39°43' W 074°01'1 2.6
2019-Aug-17 23:30N 39°44' W 074°00'2 4.0
2019-Aug-17 23:00N 39°42' W 074°01'2 4.0
2019-Aug-17 22:30N 39°40' W 074°02'1 1.2
2019-Aug-17 22:00N 39°40' W 074°02'2 4.2
2019-Aug-17 21:30N 39°42' W 074°01'2 4.3
2019-Aug-17 21:00N 39°44' W 074°00'1 1.1
2019-Aug-17 20:30N 39°43' W 074°01'2 4.0
2019-Aug-17 20:00N 39°41' W 074°01'2 4.0
2019-Aug-17 19:30N 39°39' W 074°02'2 3.4
2019-Aug-17 19:00N 39°38' W 074°03'2 3.5
2019-Aug-17 18:30N 39°39' W 074°02'4 4.0
2019-Aug-17 17:30N 39°43' W 074°01'2 3.6
2019-Aug-17 17:00N 39°41' W 074°01'1 2.4
2019-Aug-17 16:30N 39°40' W 074°01'1 2.7
2019-Aug-17 16:00N 39°39' W 074°02'0 0.6
2019-Aug-17 15:30N 39°39' W 074°02'0 0.9
2019-Aug-17 15:00N 39°40' W 074°02'2 3.1
2019-Aug-17 14:30N 39°38' W 074°03'4 7.0
2019-Aug-17 14:00N 39°35' W 074°04'3 5.6
2019-Aug-17 13:30N 39°32' W 074°05'3 5.7
2019-Aug-17 13:00N 39°30' W 074°06'3 5.5
2019-Aug-17 12:30N 39°28' W 074°09'1 2.6
2019-Aug-17 12:00N 39°28' W 074°08'0 0.3
2019-Aug-17 11:29N 39°28' W 074°08'0 0.2
2019-Aug-17 11:00N 39°28' W 074°08'0 0.3
2019-Aug-17 10:30N 39°28' W 074°08'0 0.9
2019-Aug-17 10:00N 39°29' W 074°08'1 1.5
2019-Aug-17 09:25N 39°28' W 074°07'0 1.1
2019-Aug-17 08:59N 39°28' W 074°08'0 0.5
2019-Aug-17 08:29N 39°28' W 074°07'0 0.5
2019-Aug-17 08:00N 39°28' W 074°07'0 0.5
2019-Aug-17 07:29N 39°28' W 074°07'0 0.3
2019-Aug-17 06:54N 39°28' W 074°06'1 1.8
2019-Aug-17 06:30N 39°28' W 074°06'1 0.9
2019-Aug-17 05:49N 39°28' W 074°05'1 1.6
2019-Aug-17 05:22N 39°28' W 074°04'1 1.6
2019-Aug-17 04:53N 39°28' W 074°05'1 2.9
2019-Aug-17 04:29N 39°28' W 074°07'3 5.3
2019-Aug-17 03:58N 39°26' W 074°09'4 9.1
2019-Aug-17 03:30N 39°22' W 074°09'5 9.6
2019-Aug-17 03:00N 39°17' W 074°09'5 9.2
2019-Aug-17 02:27N 39°12' W 074°11'4 8.6
2019-Aug-17 02:00N 39°10' W 074°14'4 2.7
2019-Aug-17 00:30N 39°08' W 074°19'6 4.0
2019-Aug-16 22:54N 39°04' W 074°14'6 0.6
2019-Aug-16 12:57N 39°08' W 074°19'5 4.1
2019-Aug-16 11:43N 39°04' W 074°15'2 0.5
2019-Aug-16 08:15N 39°03' W 074°16'2 4.4
2019-Aug-16 07:54N 39°02' W 074°15'4 3.7
2019-Aug-16 06:51N 39°04' W 074°19'3 3.7
2019-Aug-16 06:05N 39°07' W 074°21'0 4.5
2019-Aug-16 06:00N 39°07' W 074°21'1 1.4
2019-Aug-16 05:16N 39°07' W 074°22'1 3.7
2019-Aug-16 05:01N 39°07' W 074°21'2 1.1
2019-Aug-16 03:34N 39°09' W 074°21'1 4.0
2019-Aug-16 03:18N 39°08' W 074°20'3 4.3
2019-Aug-16 02:33N 39°06' W 074°17'1 4.3
2019-Aug-16 02:17N 39°05' W 074°17'2 4.5
2019-Aug-16 01:53N 39°03' W 074°15'2 4.4
2019-Aug-16 01:30N 39°02' W 074°13'10 3.7
2019-Aug-15 22:55N 39°10' W 074°21'3 3.6
2019-Aug-15 22:01N 39°08' W 074°17'0 3.9
2019-Aug-15 22:00N 39°08' W 074°17'4 4.2
2019-Aug-15 21:10N 39°06' W 074°15'1 4.0
2019-Aug-15 20:57N 39°05' W 074°14'2 4.2
2019-Aug-15 20:23N 39°03' W 074°12'1 1.3
2019-Aug-15 19:53N 39°03' W 074°13'1 0.2
2019-Aug-15 13:32N 39°04' W 074°13'1 4.3
2019-Aug-15 13:24N 39°04' W 074°13'1 0.7
2019-Aug-15 12:37N 39°04' W 074°12'2 4.1
2019-Aug-15 12:14N 39°05' W 074°14'3 3.9
2019-Aug-15 11:20N 39°07' W 074°17'2 3.7
2019-Aug-15 10:48N 39°09' W 074°18'1 4.1
2019-Aug-15 10:30N 39°08' W 074°17'1 1.3
2019-Aug-15 10:01N 39°08' W 074°18'1 2.9
2019-Aug-15 09:30N 39°09' W 074°19'1 2.5
2019-Aug-15 09:01N 39°09' W 074°21'2 4.4
2019-Aug-15 08:30N 39°08' W 074°19'3 4.5
2019-Aug-15 07:56N 39°06' W 074°17'2 3.6
2019-Aug-15 07:26N 39°05' W 074°15'4 4.2
2019-Aug-15 06:34N 39°08' W 074°16'0 4.6
2019-Aug-15 06:30N 39°08' W 074°17'2 3.8
2019-Aug-15 06:00N 39°09' W 074°19'2 4.4
2019-Aug-15 05:29N 39°07' W 074°17'3 4.9
2019-Aug-15 04:57N 39°05' W 074°15'4 1.9
2019-Aug-15 02:36N 39°09' W 074°18'1 1.4
2019-Aug-15 02:08N 39°09' W 074°17'2 4.6
2019-Aug-15 01:38N 39°09' W 074°14'1 2.8
2019-Aug-15 01:15N 39°08' W 074°15'5 2.7
2019-Aug-14 23:26N 39°10' W 074°20'4 0.4
2019-Aug-14 12:54N 39°07' W 074°17'2 4.2
2019-Aug-14 12:30N 39°09' W 074°18'2 3.3
2019-Aug-14 11:57N 39°08' W 074°16'2 4.0
2019-Aug-14 11:30N 39°06' W 074°15'1 2.4
2019-Aug-14 11:00N 39°07' W 074°16'2 3.6
2019-Aug-14 10:30N 39°08' W 074°18'2 3.4
2019-Aug-14 09:58N 39°10' W 074°19'1 1.5
2019-Aug-14 09:30N 39°09' W 074°18'2 3.2
2019-Aug-14 08:59N 39°08' W 074°17'2 3.2
2019-Aug-14 08:30N 39°07' W 074°15'2 3.2
2019-Aug-14 07:57N 39°06' W 074°14'1 3.1
2019-Aug-14 07:30N 39°05' W 074°13'2 3.1
2019-Aug-14 06:54N 39°06' W 074°11'1 3.5
2019-Aug-14 06:30N 39°07' W 074°10'2 3.3
2019-Aug-14 05:59N 39°08' W 074°08'2 3.4
2019-Aug-14 05:16N 39°06' W 074°11'1 3.7
2019-Aug-14 04:58N 39°06' W 074°12'4 3.6
2019-Aug-14 03:47N 39°03' W 074°16'1 2.4
2019-Aug-14 03:30N 39°03' W 074°15'1 2.1
2019-Aug-14 02:53N 39°04' W 074°14'1 2.1
2019-Aug-14 02:30N 39°04' W 074°13'1 1.9
2019-Aug-14 01:59N 39°05' W 074°12'1 1.8
2019-Aug-14 01:26N 39°06' W 074°11'1 0.2
2019-Aug-13 22:18N 39°06' W 074°11'4 0.4
2019-Aug-13 11:44N 39°10' W 074°13'1 1.8
2019-Aug-13 11:25N 39°10' W 074°12'2 3.5
2019-Aug-13 10:59N 39°09' W 074°14'3 4.4
2019-Aug-13 10:24N 39°07' W 074°16'2 4.3
2019-Aug-13 09:58N 39°06' W 074°17'1 1.3
2019-Aug-13 09:16N 39°07' W 074°17'0 1.5
2019-Aug-13 09:00N 39°07' W 074°17'1 1.6
2019-Aug-13 08:16N 39°08' W 074°17'1 1.7
2019-Aug-13 07:30N 39°09' W 074°16'3 4.4
2019-Aug-13 06:50N 39°06' W 074°15'1 4.3
2019-Aug-13 06:30N 39°05' W 074°15'2 4.3
2019-Aug-13 06:00N 39°03' W 074°15'2 2.3
2019-Aug-13 05:17N 39°04' W 074°15'3 2.5
2019-Aug-13 04:02N 39°07' W 074°15'0 2.6
2019-Aug-13 03:59N 39°08' W 074°15'3 2.1
2019-Aug-13 02:45N 39°10' W 074°14'3 2.7
2019-Aug-13 01:43N 39°08' W 074°12'1 3.3
2019-Aug-13 01:29N 39°07' W 074°12'2 3.5
2019-Aug-13 00:59N 39°06' W 074°12'3 0.5
2019-Aug-12 19:56N 39°07' W 074°15'2 2.6
2019-Aug-12 19:13N 39°08' W 074°17'2 2.5
2019-Aug-12 18:20N 39°10' W 074°19'1 3.1
2019-Aug-12 17:55N 39°09' W 074°18'1 3.5
2019-Aug-12 17:30N 39°08' W 074°16'1 2.6
2019-Aug-12 17:00N 39°06' W 074°16'2 3.1
2019-Aug-12 16:20N 39°08' W 074°17'1 3.0
2019-Aug-12 15:52N 39°09' W 074°18'1 2.4
2019-Aug-12 15:30N 39°10' W 074°19'7 3.1
2019-Aug-12 13:22N 39°05' W 074°14'1 3.6
2019-Aug-12 13:00N 39°06' W 074°15'2 4.3
2019-Aug-12 12:30N 39°07' W 074°17'2 4.4
2019-Aug-12 12:00N 39°09' W 074°18'1 2.3
2019-Aug-12 11:30N 39°10' W 074°19'2 4.3
2019-Aug-12 11:01N 39°08' W 074°17'0 0.4
2019-Aug-12 10:16N 39°08' W 074°18'1 2.7
2019-Aug-12 10:00N 39°09' W 074°18'2 4.3
2019-Aug-12 09:30N 39°07' W 074°16'2 4.5
2019-Aug-12 09:00N 39°06' W 074°15'0 0.9
2019-Aug-12 08:30N 39°05' W 074°14'2 4.0
2019-Aug-12 08:00N 39°07' W 074°16'2 3.4
2019-Aug-12 07:30N 39°08' W 074°17'0 0.6
2019-Aug-12 07:01N 39°08' W 074°17'2 3.7
2019-Aug-12 06:29N 39°07' W 074°16'2 3.8
2019-Aug-12 05:52N 39°05' W 074°14'2 0.1
2019-Aug-11 13:09N 39°03' W 074°13'1 4.5
2019-Aug-11 13:00N 39°03' W 074°14'2 3.4
2019-Aug-11 12:31N 39°01' W 074°15'0 0.4
2019-Aug-11 12:01N 39°02' W 074°15'2 3.9
2019-Aug-11 11:31N 39°03' W 074°17'3 3.9
2019-Aug-11 10:50N 39°05' W 074°19'0 0.5
2019-Aug-11 10:19N 39°05' W 074°19'1 4.7
2019-Aug-11 10:00N 39°04' W 074°18'2 3.2
2019-Aug-11 09:28N 39°05' W 074°19'0 0.3
2019-Aug-11 08:42N 39°05' W 074°20'1 3.1
2019-Aug-11 08:28N 39°06' W 074°20'2 3.5
2019-Aug-11 07:48N 39°04' W 074°18'2 3.8
2019-Aug-11 07:14N 39°03' W 074°16'10 0.5
2019-Aug-10 11:52N 39°13' W 074°14'4 2.8
2019-Aug-10 10:31N 39°09' W 074°12'  
Track history (hours):
 
Tides and Currents Weather Stations Pressure Air Temp Water Temp Dewpoint Dewpoint Depression Visibility Wind Speed Wind Dir Waves Ship Positions

Oceanographic research ship Charles Darwin (UK)

Detailed information on ship capabilities available from University of Delaware's Ocean Information Center.

Last reported at 2019-Aug-20 09:30 UTC. Time now 2019-Aug-20 09:51 UTC.
Position N 39°06' W 074°17'.

Length 70 m; draft 5.7 m.

Type: Cargo ship. MMSI: 235011460.

Date/timePositionNaut miles runAvg speedWind from/ knotsBaromVisibWave heightAir tempDewpointWater temp
2019-Aug-20 09:30N 39°06' W 074°17'1 2.9
2019-Aug-20 09:00N 39°08' W 074°18'2 3.8
2019-Aug-20 08:30N 39°07' W 074°16'2 3.8
2019-Aug-20 08:00N 39°05' W 074°14'2 3.7
2019-Aug-20 07:30N 39°04' W 074°13'1 2.4
2019-Aug-20 07:00N 39°05' W 074°14'2 3.9
2019-Aug-20 06:30N 39°06' W 074°15'2 3.9
2019-Aug-20 05:55N 39°08' W 074°17'2 3.7
2019-Aug-20 05:22N 39°09' W 074°19'1 3.3
2019-Aug-20 05:00N 39°08' W 074°18'7 3.5
2019-Aug-20 03:05N 39°03' W 074°13'3 1.3
2019-Aug-20 00:29N 39°05' W 074°16'2 4.3
2019-Aug-20 00:00N 39°04' W 074°14'2 4.3
2019-Aug-19 23:31N 39°02' W 074°13'9 3.3
2019-Aug-19 20:37N 39°09' W 074°20'1 4.2
2019-Aug-19 20:30N 39°09' W 074°20'2 4.1
2019-Aug-19 19:55N 39°07' W 074°18'3 4.1
2019-Aug-19 19:12N 39°05' W 074°15'1 4.0
2019-Aug-19 18:58N 39°04' W 074°15'2 4.0
2019-Aug-19 18:30N 39°03' W 074°13'1 1.7
2019-Aug-19 17:47N 39°04' W 074°14'1 4.4
2019-Aug-19 17:28N 39°05' W 074°15'7 4.1
2019-Aug-19 15:49N 39°10' W 074°21'1 2.5
2019-Aug-19 15:25N 39°09' W 074°20'2 4.0
2019-Aug-19 15:00N 39°08' W 074°19'1 2.6
2019-Aug-19 14:28N 39°07' W 074°17'2 4.2
2019-Aug-19 13:57N 39°08' W 074°15'2 3.3
2019-Aug-19 13:28N 39°10' W 074°15'1 3.1
2019-Aug-19 12:59N 39°11' W 074°16'2 3.0
2019-Aug-19 12:24N 39°13' W 074°17'3 8.2
2019-Aug-19 12:00N 39°16' W 074°16'4 8.6
2019-Aug-19 11:30N 39°20' W 074°13'4 8.6
2019-Aug-19 11:01N 39°24' W 074°10'4 8.5
2019-Aug-19 10:30N 39°27' W 074°07'2 4.2
2019-Aug-19 10:01N 39°29' W 074°06'1 2.2
2019-Aug-19 09:31N 39°29' W 074°05'0 0.6
2019-Aug-19 09:00N 39°29' W 074°04'0 0.3
2019-Aug-19 08:30N 39°29' W 074°04'0 0.2
2019-Aug-19 08:00N 39°29' W 074°04'0 0.2
2019-Aug-19 07:30N 39°29' W 074°04'0 0.1
2019-Aug-19 07:00N 39°29' W 074°04'0 0.0
2019-Aug-19 06:30N 39°29' W 074°04'2 1.9
2019-Aug-19 05:38N 39°30' W 074°03'0 3.4
2019-Aug-19 05:30N 39°30' W 074°04'2 3.5
2019-Aug-19 05:01N 39°28' W 074°04'0 0.1
2019-Aug-19 04:30N 39°28' W 074°05'0 0.0
2019-Aug-19 04:00N 39°28' W 074°05'0 0.2
2019-Aug-19 03:31N 39°28' W 074°05'0 0.2
2019-Aug-19 03:00N 39°28' W 074°05'0 0.2
2019-Aug-19 02:31N 39°28' W 074°05'0 0.3
2019-Aug-19 02:00N 39°28' W 074°05'0 0.3
2019-Aug-19 01:31N 39°28' W 074°05'0 0.3
2019-Aug-19 01:00N 39°28' W 074°05'1 2.4
2019-Aug-19 00:30N 39°28' W 074°07'2 3.0
2019-Aug-19 00:00N 39°29' W 074°08'2 4.0
2019-Aug-18 23:30N 39°30' W 074°06'2 4.0
2019-Aug-18 23:00N 39°32' W 074°05'2 4.2
2019-Aug-18 22:30N 39°34' W 074°05'2 4.1
2019-Aug-18 22:00N 39°36' W 074°04'2 4.2
2019-Aug-18 21:30N 39°38' W 074°03'2 3.8
2019-Aug-18 20:59N 39°36' W 074°04'2 4.1
2019-Aug-18 20:30N 39°34' W 074°05'2 4.4
2019-Aug-18 20:00N 39°32' W 074°05'2 4.0
2019-Aug-18 19:30N 39°30' W 074°06'2 4.0
2019-Aug-18 19:00N 39°29' W 074°08'5 3.9
2019-Aug-18 17:47N 39°33' W 074°05'1 4.3
2019-Aug-18 17:30N 39°34' W 074°05'2 4.2
2019-Aug-18 17:00N 39°36' W 074°04'2 4.0
2019-Aug-18 16:30N 39°38' W 074°03'2 4.0
2019-Aug-18 16:00N 39°36' W 074°04'2 3.9
2019-Aug-18 15:30N 39°34' W 074°05'2 3.9
2019-Aug-18 15:00N 39°32' W 074°05'2 3.9
2019-Aug-18 14:30N 39°30' W 074°06'2 3.8
2019-Aug-18 14:00N 39°29' W 074°08'0 0.9
2019-Aug-18 13:30N 39°29' W 074°08'2 3.9
2019-Aug-18 12:56N 39°30' W 074°06'2 4.1
2019-Aug-18 12:30N 39°32' W 074°05'2 4.1
2019-Aug-18 11:58N 39°34' W 074°05'2 4.1
2019-Aug-18 11:30N 39°36' W 074°04'2 4.2
2019-Aug-18 11:00N 39°38' W 074°03'1 2.0
2019-Aug-18 10:29N 39°37' W 074°03'2 3.4
2019-Aug-18 10:00N 39°38' W 074°02'2 3.6
2019-Aug-18 09:30N 39°39' W 074°00'1 2.7
2019-Aug-18 09:00N 39°40' W 073°59'0 0.1
2019-Aug-18 08:30N 39°40' W 073°59'0 0.1
2019-Aug-18 08:00N 39°40' W 073°58'0 0.1
2019-Aug-18 07:00N 39°40' W 073°58'0 0.2
2019-Aug-18 06:30N 39°40' W 073°58'0 0.1
2019-Aug-18 06:00N 39°40' W 073°59'0 0.2
2019-Aug-18 05:30N 39°40' W 073°59'0 0.1
2019-Aug-18 05:00N 39°40' W 073°59'0 0.1
2019-Aug-18 04:30N 39°40' W 073°59'0 0.1
2019-Aug-18 04:00N 39°39' W 073°59'0 0.1
2019-Aug-18 03:30N 39°39' W 073°59'0 0.1
2019-Aug-18 03:00N 39°39' W 073°59'0 0.2
2019-Aug-18 02:30N 39°39' W 073°59'1 1.2
2019-Aug-18 02:00N 39°39' W 073°60'0 0.1
2019-Aug-18 01:30N 39°39' W 073°60'0 0.1
2019-Aug-18 01:00N 39°39' W 073°60'2 3.4
2019-Aug-18 00:27N 39°41' W 074°01'2 4.1
2019-Aug-18 00:00N 39°43' W 074°01'1 2.6
2019-Aug-17 23:30N 39°44' W 074°00'2 4.0
2019-Aug-17 23:00N 39°42' W 074°01'2 4.0
2019-Aug-17 22:30N 39°40' W 074°02'1 1.2
2019-Aug-17 22:00N 39°40' W 074°02'2 4.2
2019-Aug-17 21:30N 39°42' W 074°01'2 4.3
2019-Aug-17 21:00N 39°44' W 074°00'1 1.1
2019-Aug-17 20:30N 39°43' W 074°01'2 4.0
2019-Aug-17 20:00N 39°41' W 074°01'2 4.0
2019-Aug-17 19:30N 39°39' W 074°02'2 3.4
2019-Aug-17 19:00N 39°38' W 074°03'2 3.5
2019-Aug-17 18:30N 39°39' W 074°02'4 4.0
2019-Aug-17 17:30N 39°43' W 074°01'2 3.6
2019-Aug-17 17:00N 39°41' W 074°01'1 2.4
2019-Aug-17 16:30N 39°40' W 074°01'1 2.7
2019-Aug-17 16:00N 39°39' W 074°02'0 0.6
2019-Aug-17 15:30N 39°39' W 074°02'0 0.9
2019-Aug-17 15:00N 39°40' W 074°02'2 3.1
2019-Aug-17 14:30N 39°38' W 074°03'4 7.0
2019-Aug-17 14:00N 39°35' W 074°04'3 5.6
2019-Aug-17 13:30N 39°32' W 074°05'3 5.7
2019-Aug-17 13:00N 39°30' W 074°06'3 5.5
2019-Aug-17 12:30N 39°28' W 074°09'1 2.6
2019-Aug-17 12:00N 39°28' W 074°08'0 0.3
2019-Aug-17 11:29N 39°28' W 074°08'0 0.2
2019-Aug-17 11:00N 39°28' W 074°08'0 0.3
2019-Aug-17 10:30N 39°28' W 074°08'0 0.9
2019-Aug-17 10:00N 39°29' W 074°08'1 1.5
2019-Aug-17 09:25N 39°28' W 074°07'0 1.1
2019-Aug-17 08:59N 39°28' W 074°08'0 0.5
2019-Aug-17 08:29N 39°28' W 074°07'0 0.5
2019-Aug-17 08:00N 39°28' W 074°07'0 0.5
2019-Aug-17 07:29N 39°28' W 074°07'0 0.3
2019-Aug-17 06:54N 39°28' W 074°06'1 1.8
2019-Aug-17 06:30N 39°28' W 074°06'1 0.9
2019-Aug-17 05:49N 39°28' W 074°05'1 1.6
2019-Aug-17 05:22N 39°28' W 074°04'1 1.6
2019-Aug-17 04:53N 39°28' W 074°05'1 2.9
2019-Aug-17 04:29N 39°28' W 074°07'3 5.3
2019-Aug-17 03:58N 39°26' W 074°09'4 9.1
2019-Aug-17 03:30N 39°22' W 074°09'5 9.6
2019-Aug-17 03:00N 39°17' W 074°09'5 9.2
2019-Aug-17 02:27N 39°12' W 074°11'4 8.6
2019-Aug-17 02:00N 39°10' W 074°14'4 2.7
2019-Aug-17 00:30N 39°08' W 074°19'6 4.0
2019-Aug-16 22:54N 39°04' W 074°14'6 0.6
2019-Aug-16 12:57N 39°08' W 074°19'5 4.1
2019-Aug-16 11:43N 39°04' W 074°15'2 0.5
2019-Aug-16 08:15N 39°03' W 074°16'2 4.4
2019-Aug-16 07:54N 39°02' W 074°15'4 3.7
2019-Aug-16 06:51N 39°04' W 074°19'3 3.7
2019-Aug-16 06:05N 39°07' W 074°21'0 4.5
2019-Aug-16 06:00N 39°07' W 074°21'1 1.4
2019-Aug-16 05:16N 39°07' W 074°22'1 3.7
2019-Aug-16 05:01N 39°07' W 074°21'2 1.1
2019-Aug-16 03:34N 39°09' W 074°21'1 4.0
2019-Aug-16 03:18N 39°08' W 074°20'3 4.3
2019-Aug-16 02:33N 39°06' W 074°17'1 4.3
2019-Aug-16 02:17N 39°05' W 074°17'2 4.5
2019-Aug-16 01:53N 39°03' W 074°15'2 4.4
2019-Aug-16 01:30N 39°02' W 074°13'10 3.7
2019-Aug-15 22:55N 39°10' W 074°21'3 3.6
2019-Aug-15 22:01N 39°08' W 074°17'0 3.9
2019-Aug-15 22:00N 39°08' W 074°17'4 4.2
2019-Aug-15 21:10N 39°06' W 074°15'1 4.0
2019-Aug-15 20:57N 39°05' W 074°14'2 4.2
2019-Aug-15 20:23N 39°03' W 074°12'1 1.3
2019-Aug-15 19:53N 39°03' W 074°13'1 0.2
2019-Aug-15 13:32N 39°04' W 074°13'1 4.3
2019-Aug-15 13:24N 39°04' W 074°13'1 0.7
2019-Aug-15 12:37N 39°04' W 074°12'2 4.1
2019-Aug-15 12:14N 39°05' W 074°14'3 3.9
2019-Aug-15 11:20N 39°07' W 074°17'2 3.7
2019-Aug-15 10:48N 39°09' W 074°18'1 4.1
2019-Aug-15 10:30N 39°08' W 074°17'1 1.3
2019-Aug-15 10:01N 39°08' W 074°18'1 2.9
2019-Aug-15 09:30N 39°09' W 074°19'1 2.5
2019-Aug-15 09:01N 39°09' W 074°21'2 4.4
2019-Aug-15 08:30N 39°08' W 074°19'3 4.5
2019-Aug-15 07:56N 39°06' W 074°17'2 3.6
2019-Aug-15 07:26N 39°05' W 074°15'4 4.2
2019-Aug-15 06:34N 39°08' W 074°16'0 4.6
2019-Aug-15 06:30N 39°08' W 074°17'2 3.8
2019-Aug-15 06:00N 39°09' W 074°19'2 4.4
2019-Aug-15 05:29N 39°07' W 074°17'3 4.9
2019-Aug-15 04:57N 39°05' W 074°15'4 1.9
2019-Aug-15 02:36N 39°09' W 074°18'1 1.4
2019-Aug-15 02:08N 39°09' W 074°17'2 4.6
2019-Aug-15 01:38N 39°09' W 074°14'1 2.8
2019-Aug-15 01:15N 39°08' W 074°15'5 2.7
2019-Aug-14 23:26N 39°10' W 074°20'4 0.4
2019-Aug-14 12:54N 39°07' W 074°17'2 4.2
2019-Aug-14 12:30N 39°09' W 074°18'2 3.3
2019-Aug-14 11:57N 39°08' W 074°16'2 4.0
2019-Aug-14 11:30N 39°06' W 074°15'1 2.4
2019-Aug-14 11:00N 39°07' W 074°16'2 3.6
2019-Aug-14 10:30N 39°08' W 074°18'2 3.4
2019-Aug-14 09:58N 39°10' W 074°19'1 1.5
2019-Aug-14 09:30N 39°09' W 074°18'2 3.2
2019-Aug-14 08:59N 39°08' W 074°17'2 3.2
2019-Aug-14 08:30N 39°07' W 074°15'2 3.2
2019-Aug-14 07:57N 39°06' W 074°14'1 3.1
2019-Aug-14 07:30N 39°05' W 074°13'2 3.1
2019-Aug-14 06:54N 39°06' W 074°11'1 3.5
2019-Aug-14 06:30N 39°07' W 074°10'2 3.3
2019-Aug-14 05:59N 39°08' W 074°08'2 3.4
2019-Aug-14 05:16N 39°06' W 074°11'1 3.7
2019-Aug-14 04:58N 39°06' W 074°12'4 3.6
2019-Aug-14 03:47N 39°03' W 074°16'1 2.4
2019-Aug-14 03:30N 39°03' W 074°15'1 2.1
2019-Aug-14 02:53N 39°04' W 074°14'1 2.1
2019-Aug-14 02:30N 39°04' W 074°13'1 1.9
2019-Aug-14 01:59N 39°05' W 074°12'1 1.8
2019-Aug-14 01:26N 39°06' W 074°11'1 0.2
2019-Aug-13 22:18N 39°06' W 074°11'4 0.4
2019-Aug-13 11:44N 39°10' W 074°13'1 1.8
2019-Aug-13 11:25N 39°10' W 074°12'2 3.5
2019-Aug-13 10:59N 39°09' W 074°14'3 4.4
2019-Aug-13 10:24N 39°07' W 074°16'2 4.3
2019-Aug-13 09:58N 39°06' W 074°17'1 1.3
2019-Aug-13 09:16N 39°07' W 074°17'0 1.5
2019-Aug-13 09:00N 39°07' W 074°17'1 1.6
2019-Aug-13 08:16N 39°08' W 074°17'1 1.7
2019-Aug-13 07:30N 39°09' W 074°16'3 4.4
2019-Aug-13 06:50N 39°06' W 074°15'1 4.3
2019-Aug-13 06:30N 39°05' W 074°15'2 4.3
2019-Aug-13 06:00N 39°03' W 074°15'2 2.3
2019-Aug-13 05:17N 39°04' W 074°15'3 2.5
2019-Aug-13 04:02N 39°07' W 074°15'0 2.6
2019-Aug-13 03:59N 39°08' W 074°15'3 2.1
2019-Aug-13 02:45N 39°10' W 074°14'3 2.7
2019-Aug-13 01:43N 39°08' W 074°12'1 3.3
2019-Aug-13 01:29N 39°07' W 074°12'2 3.5
2019-Aug-13 00:59N 39°06' W 074°12'3 0.5
2019-Aug-12 19:56N 39°07' W 074°15'2 2.6
2019-Aug-12 19:13N 39°08' W 074°17'2 2.5
2019-Aug-12 18:20N 39°10' W 074°19'1 3.1
2019-Aug-12 17:55N 39°09' W 074°18'1 3.5
2019-Aug-12 17:30N 39°08' W 074°16'1 2.6
2019-Aug-12 17:00N 39°06' W 074°16'2 3.1
2019-Aug-12 16:20N 39°08' W 074°17'1 3.0
2019-Aug-12 15:52N 39°09' W 074°18'1 2.4
2019-Aug-12 15:30N 39°10' W 074°19'7 3.1
2019-Aug-12 13:22N 39°05' W 074°14'1 3.6
2019-Aug-12 13:00N 39°06' W 074°15'2 4.3
2019-Aug-12 12:30N 39°07' W 074°17'2 4.4
2019-Aug-12 12:00N 39°09' W 074°18'1 2.3
2019-Aug-12 11:30N 39°10' W 074°19'2 4.3
2019-Aug-12 11:01N 39°08' W 074°17'0 0.4
2019-Aug-12 10:16N 39°08' W 074°18'1 2.7
2019-Aug-12 10:00N 39°09' W 074°18'2 4.3
2019-Aug-12 09:30N 39°07' W 074°16'2 4.5
2019-Aug-12 09:00N 39°06' W 074°15'0 0.9
2019-Aug-12 08:30N 39°05' W 074°14'2 4.0
2019-Aug-12 08:00N 39°07' W 074°16'2 3.4
2019-Aug-12 07:30N 39°08' W 074°17'0 0.6
2019-Aug-12 07:01N 39°08' W 074°17'2 3.7
2019-Aug-12 06:29N 39°07' W 074°16'2 3.8
2019-Aug-12 05:52N 39°05' W 074°14'2 0.1
2019-Aug-11 13:09N 39°03' W 074°13'1 4.5
2019-Aug-11 13:00N 39°03' W 074°14'2 3.4
2019-Aug-11 12:31N 39°01' W 074°15'0 0.4
2019-Aug-11 12:01N 39°02' W 074°15'2 3.9
2019-Aug-11 11:31N 39°03' W 074°17'3 3.9
2019-Aug-11 10:50N 39°05' W 074°19'0 0.5
2019-Aug-11 10:19N 39°05' W 074°19'1 4.7
2019-Aug-11 10:00N 39°04' W 074°18'2 3.2
2019-Aug-11 09:28N 39°05' W 074°19'0 0.3
2019-Aug-11 08:42N 39°05' W 074°20'1 3.1
2019-Aug-11 08:28N 39°06' W 074°20'2 3.5
2019-Aug-11 07:48N 39°04' W 074°18'2 3.8
2019-Aug-11 07:14N 39°03' W 074°16'10 0.5
2019-Aug-10 11:52N 39°13' W 074°14'4 2.8
2019-Aug-10 10:31N 39°09' W 074°12'  

Dump ship's entire track history